createdAt,value
2019-03-08T00:00:24.749Z,65.40
2019-03-08T00:02:52.973Z,65.60
2019-03-08T00:05:21.766Z,65.60
2019-03-08T00:07:50.029Z,65.80
2019-03-08T00:10:18.257Z,66.00
2019-03-08T00:12:46.706Z,66.00
2019-03-08T00:15:14.926Z,65.80
2019-03-08T00:17:43.141Z,66.90
2019-03-08T00:20:11.649Z,66.20
2019-03-08T00:22:39.920Z,66.10
2019-03-08T00:25:12.411Z,66.00
2019-03-08T00:27:40.622Z,65.80
2019-03-08T00:30:13.604Z,66.00
2019-03-08T00:32:42.111Z,66.10
2019-03-08T00:35:11.168Z,66.30
2019-03-08T00:37:39.393Z,66.60
2019-03-08T00:40:12.953Z,66.90
2019-03-08T00:42:41.181Z,67.20
2019-03-08T00:45:12.139Z,67.50
2019-03-08T00:47:40.362Z,67.70
2019-03-08T00:50:09.514Z,67.80
2019-03-08T00:52:37.802Z,67.90
2019-03-08T00:55:08.516Z,68.10
2019-03-08T00:57:36.724Z,68.30
2019-03-08T01:00:10.789Z,68.40
2019-03-08T01:02:39.059Z,68.50
2019-03-08T01:05:08.129Z,68.50
2019-03-08T01:07:36.370Z,68.50
2019-03-08T01:10:08.338Z,68.50
2019-03-08T01:12:36.574Z,68.50
2019-03-08T01:15:08.461Z,68.80
2019-03-08T01:17:36.672Z,68.90
2019-03-08T01:20:06.836Z,69.10
2019-03-08T01:22:35.083Z,69.50
2019-03-08T01:25:04.224Z,70.00
2019-03-08T01:27:32.439Z,70.90
2019-03-08T01:30:00.666Z,71.20
2019-03-08T01:32:28.875Z,71.60
2019-03-08T01:34:57.106Z,71.50
2019-03-08T01:37:25.362Z,72.50
2019-03-08T01:39:53.618Z,72.00
2019-03-08T01:42:21.825Z,72.40
2019-03-08T01:44:50.050Z,72.40
2019-03-08T01:47:18.261Z,72.10
2019-03-08T01:49:46.493Z,72.10
2019-03-08T01:52:14.717Z,72.00
2019-03-08T01:54:43.019Z,72.20
2019-03-08T01:57:11.239Z,72.40
2019-03-08T01:59:39.458Z,72.90
2019-03-08T02:02:07.687Z,74.00
2019-03-08T02:04:35.890Z,75.10
2019-03-08T02:07:05.593Z,75.60
2019-03-08T02:09:33.797Z,75.40
2019-03-08T02:12:02.032Z,75.60
2019-03-08T02:14:30.239Z,75.60
2019-03-08T02:16:58.449Z,75.60
2019-03-08T02:19:26.664Z,76.00
2019-03-08T02:21:54.880Z,76.30
2019-03-08T02:24:23.382Z,77.10
2019-03-08T02:26:51.606Z,77.90
2019-03-08T02:29:19.835Z,79.30
2019-03-08T02:31:48.306Z,80.00
2019-03-08T02:34:16.524Z,79.60
2019-03-08T02:36:44.746Z,79.90
2019-03-08T02:39:12.962Z,79.70
2019-03-08T02:41:41.215Z,80.30
2019-03-08T02:44:09.490Z,79.90
2019-03-08T02:46:37.708Z,81.20
2019-03-08T02:49:06.430Z,82.20
2019-03-08T02:51:34.733Z,82.90
2019-03-08T02:54:02.983Z,83.60
2019-03-08T02:56:31.252Z,84.10
2019-03-08T02:58:59.637Z,84.20
2019-03-08T03:01:27.860Z,84.50
2019-03-08T03:03:56.086Z,83.90
2019-03-08T03:06:24.390Z,83.70
2019-03-08T03:08:52.592Z,83.80
2019-03-08T03:11:20.804Z,84.10
2019-03-08T03:13:49.497Z,84.30
2019-03-08T03:16:17.838Z,84.20
2019-03-08T03:18:46.129Z,84.40
2019-03-08T03:21:14.637Z,84.70
2019-03-08T03:23:42.867Z,83.90
2019-03-08T03:26:11.394Z,84.30
2019-03-08T03:28:39.874Z,83.90
2019-03-08T03:31:08.090Z,83.80
2019-03-08T03:33:36.313Z,83.60
2019-03-08T03:36:04.585Z,83.40
2019-03-08T03:38:32.850Z,83.40
2019-03-08T03:41:01.066Z,82.90
2019-03-08T03:43:29.666Z,82.80
2019-03-08T03:45:57.874Z,83.30
2019-03-08T03:48:26.391Z,83.40
2019-03-08T03:50:54.867Z,83.00
2019-03-08T03:53:23.069Z,83.10
2019-03-08T03:55:51.271Z,83.80
2019-03-08T03:58:19.893Z,84.50
2019-03-08T04:00:48.110Z,85.10
2019-03-08T04:03:16.332Z,86.20
2019-03-08T04:05:44.830Z,87.40
2019-03-08T04:08:13.033Z,89.00
2019-03-08T04:10:41.250Z,86.60
2019-03-08T04:13:09.537Z,87.80
2019-03-08T04:15:37.760Z,89.90
2019-03-08T04:18:06.297Z,90.80
2019-03-08T04:20:34.607Z,90.90
2019-03-08T04:23:02.822Z,91.00
2019-03-08T04:25:31.038Z,91.30
2019-03-08T04:27:59.272Z,91.60
2019-03-08T04:30:27.491Z,91.60
2019-03-08T04:32:55.726Z,91.80
2019-03-08T04:35:23.940Z,91.70
2019-03-08T04:37:52.155Z,91.80
2019-03-08T04:40:20.401Z,92.20
2019-03-08T04:42:48.853Z,92.10
2019-03-08T04:45:17.082Z,91.90
2019-03-08T04:47:45.307Z,91.90
2019-03-08T04:50:14.534Z,92.20
2019-03-08T04:52:42.733Z,92.20
2019-03-08T04:55:16.929Z,92.50
2019-03-08T04:57:46.454Z,92.30
2019-03-08T05:00:16.171Z,92.00
2019-03-08T05:02:44.378Z,92.10
2019-03-08T05:05:12.593Z,91.90
2019-03-08T05:07:40.860Z,92.20
2019-03-08T05:10:14.538Z,92.20
2019-03-08T05:12:42.816Z,92.20
2019-03-08T05:15:11.510Z,92.20
2019-03-08T05:17:40.176Z,92.50
2019-03-08T05:20:09.529Z,92.60
2019-03-08T05:22:37.741Z,92.50
2019-03-08T05:25:16.066Z,92.60
2019-03-08T05:27:44.274Z,92.40
2019-03-08T05:30:18.520Z,92.40
2019-03-08T05:32:46.732Z,92.50
2019-03-08T05:35:14.963Z,92.40
2019-03-08T05:37:43.259Z,92.40
2019-03-08T05:40:12.837Z,92.10
2019-03-08T05:42:41.037Z,92.10
2019-03-08T05:45:11.628Z,92.20
2019-03-08T05:47:39.878Z,92.20
2019-03-08T05:50:09.564Z,92.20
2019-03-08T05:52:38.077Z,92.50
2019-03-08T05:55:11.415Z,92.40
2019-03-08T05:57:39.640Z,92.80
2019-03-08T06:00:19.884Z,92.50
2019-03-08T06:02:48.133Z,92.40
2019-03-08T06:05:16.644Z,92.50
2019-03-08T06:07:44.850Z,92.60
2019-03-08T06:10:28.025Z,92.70
2019-03-08T06:12:56.707Z,92.60
2019-03-08T06:15:24.909Z,92.90
2019-03-08T06:17:53.127Z,92.80
2019-03-08T06:20:21.338Z,92.70
2019-03-08T06:22:49.793Z,92.80
2019-03-08T06:25:18.014Z,92.80
2019-03-08T06:27:46.225Z,92.90
2019-03-08T06:30:14.450Z,92.80
2019-03-08T06:32:42.677Z,92.90
2019-03-08T06:35:11.204Z,92.90
2019-03-08T06:37:39.448Z,92.90
2019-03-08T06:40:10.765Z,92.70
2019-03-08T06:42:39.015Z,93.00
2019-03-08T06:45:16.561Z,92.70
2019-03-08T06:47:44.685Z,92.80
2019-03-08T06:50:14.093Z,92.90
2019-03-08T06:52:42.356Z,93.10
2019-03-08T06:55:16.019Z,92.90
2019-03-08T06:57:44.245Z,92.80
2019-03-08T07:00:35.449Z,92.80
2019-03-08T07:03:05.101Z,92.50
2019-03-08T07:05:33.322Z,92.40
2019-03-08T07:08:01.547Z,92.30
2019-03-08T07:10:29.790Z,92.20
2019-03-08T07:13:03.175Z,92.30
2019-03-08T07:15:28.235Z,92.40
2019-03-08T07:17:56.502Z,92.40
2019-03-08T07:20:32.255Z,92.40
2019-03-08T07:23:05.349Z,92.00
2019-03-08T07:25:54.519Z,92.30
2019-03-08T07:28:39.657Z,92.00
2019-03-08T07:31:12.480Z,92.00
2019-03-08T07:33:53.066Z,92.10
2019-03-08T07:36:40.315Z,91.90
2019-03-08T07:39:34.417Z,91.70
2019-03-08T07:42:24.720Z,91.80
2019-03-08T07:45:11.750Z,91.70
2019-03-08T07:47:47.641Z,91.50
2019-03-08T07:50:17.556Z,91.70
2019-03-08T07:52:50.582Z,91.30
2019-03-08T07:55:23.469Z,91.10
2019-03-08T07:57:56.284Z,90.80
2019-03-08T08:00:35.497Z,90.50
2019-03-08T08:03:21.358Z,90.20
2019-03-08T08:05:57.706Z,90.10
2019-03-08T08:08:39.043Z,89.10
2019-03-08T08:11:17.862Z,88.30
2019-03-08T08:13:56.925Z,88.10
2019-03-08T08:16:27.102Z,87.80
2019-03-08T08:19:06.340Z,87.80
2019-03-08T08:21:36.491Z,87.20
2019-03-08T08:24:21.613Z,86.60
2019-03-08T08:26:51.808Z,86.60
2019-03-08T08:29:24.681Z,86.60
2019-03-08T08:31:57.516Z,84.50
2019-03-08T08:34:27.911Z,83.80
2019-03-08T08:37:13.457Z,84.50
2019-03-08T08:39:58.469Z,85.00
2019-03-08T08:42:34.305Z,85.80
2019-03-08T08:45:04.457Z,85.90
2019-03-08T08:47:34.341Z,87.00
2019-03-08T08:50:04.491Z,85.90
2019-03-08T08:52:37.093Z,85.00
2019-03-08T08:55:08.842Z,85.10
2019-03-08T08:57:44.731Z,84.60
2019-03-08T09:00:36.213Z,83.80
2019-03-08T09:03:08.260Z,80.00
2019-03-08T09:05:40.868Z,76.50
2019-03-08T09:08:10.755Z,77.10
2019-03-08T09:10:47.001Z,78.70
2019-03-08T09:13:25.835Z,79.40
2019-03-08T09:15:55.695Z,80.50
2019-03-08T09:18:40.839Z,81.00
2019-03-08T09:21:26.918Z,81.80
2019-03-08T09:24:05.983Z,81.70
2019-03-08T09:26:38.809Z,81.70
2019-03-08T09:29:14.681Z,82.20
2019-03-08T09:31:44.565Z,81.80
2019-03-08T09:34:17.379Z,81.60
2019-03-08T09:36:50.454Z,81.40
2019-03-08T09:39:29.164Z,80.60
2019-03-08T09:42:10.819Z,80.00
2019-03-08T09:44:52.748Z,79.40
2019-03-08T09:47:22.665Z,79.70
2019-03-08T09:50:01.736Z,77.70
2019-03-08T09:52:46.864Z,78.80
2019-03-08T09:55:17.005Z,79.50
2019-03-08T09:57:49.767Z,79.10
2019-03-08T10:00:22.596Z,78.80
2019-03-08T10:02:52.523Z,79.10
2019-03-08T10:05:31.305Z,77.00
2019-03-08T10:08:17.592Z,76.20
2019-03-08T10:10:47.462Z,71.70
2019-03-08T10:13:17.323Z,71.00
2019-03-08T10:16:02.799Z,68.40
2019-03-08T10:18:41.599Z,64.20
2019-03-08T10:21:14.149Z,62.50
2019-03-08T10:23:44.318Z,64.70
2019-03-08T10:26:19.941Z,64.80
2019-03-08T10:29:01.606Z,66.40
2019-03-08T10:31:47.531Z,68.20
2019-03-08T10:34:29.486Z,62.40
2019-03-08T10:37:01.742Z,58.70
2019-03-08T10:39:31.619Z,53.20
2019-03-08T10:42:07.429Z,55.30
2019-03-08T10:44:37.329Z,56.20
2019-03-08T10:47:07.176Z,59.30
2019-03-08T10:49:55.256Z,60.60
2019-03-08T10:52:30.018Z,61.90
2019-03-08T10:55:00.229Z,62.30
2019-03-08T10:57:46.319Z,60.20
2019-03-08T11:00:25.492Z,59.50
2019-03-08T11:02:58.134Z,58.50
2019-03-08T11:05:46.133Z,58.30
2019-03-08T11:08:31.277Z,58.20
2019-03-08T11:11:17.294Z,59.10
2019-03-08T11:13:59.461Z,60.60
2019-03-08T11:16:29.676Z,59.30
2019-03-08T11:19:08.722Z,59.50
2019-03-08T11:21:54.916Z,62.10
2019-03-08T11:24:41.280Z,63.30
2019-03-08T11:27:14.108Z,63.50
2019-03-08T11:30:00.702Z,63.00
2019-03-08T11:32:42.601Z,63.90
2019-03-08T11:35:24.221Z,62.70
2019-03-08T11:38:00.169Z,60.90
2019-03-08T11:40:35.964Z,61.90
2019-03-08T11:43:05.826Z,64.90
2019-03-08T11:45:35.688Z,67.60
2019-03-08T11:48:17.602Z,68.60
2019-03-08T11:51:02.751Z,69.30
2019-03-08T11:53:56.024Z,69.70
2019-03-08T11:56:26.817Z,70.80
2019-03-08T11:58:57.000Z,71.30
2019-03-08T12:01:26.854Z,73.50
2019-03-08T12:03:59.719Z,73.90
2019-03-08T12:06:46.183Z,73.20
2019-03-08T12:09:22.273Z,72.90
2019-03-08T12:12:08.818Z,71.50
2019-03-08T12:14:38.943Z,70.40
2019-03-08T12:17:11.839Z,71.20
2019-03-08T12:19:50.700Z,70.40
2019-03-08T12:22:32.687Z,68.90
2019-03-08T12:25:13.894Z,65.60
2019-03-08T12:27:55.693Z,61.50
2019-03-08T12:30:28.527Z,57.20
2019-03-08T12:32:58.751Z,56.50
2019-03-08T12:35:28.620Z,59.30
2019-03-08T12:38:14.782Z,62.10
2019-03-08T12:40:44.645Z,64.90
2019-03-08T12:43:14.846Z,67.10
2019-03-08T12:45:50.689Z,68.20
2019-03-08T12:48:23.827Z,69.10
2019-03-08T12:51:01.433Z,68.80
2019-03-08T12:53:31.300Z,67.10
2019-03-08T12:56:04.135Z,67.50
2019-03-08T12:58:51.039Z,67.00
2019-03-08T13:01:21.085Z,63.20
2019-03-08T13:03:53.648Z,58.60
2019-03-08T13:06:29.513Z,55.60
2019-03-08T13:08:59.369Z,57.30
2019-03-08T13:11:33.300Z,59.80
2019-03-08T13:13:57.615Z,61.10
2019-03-08T13:16:25.858Z,61.20
2019-03-08T13:18:54.082Z,62.40
2019-03-08T13:21:22.337Z,62.50
2019-03-08T13:23:50.618Z,61.50
2019-03-08T13:26:18.889Z,59.80
2019-03-08T13:28:47.179Z,56.80
2019-03-08T13:31:16.025Z,56.80
2019-03-08T13:33:52.971Z,56.70
2019-03-08T13:36:21.262Z,57.30
2019-03-08T13:38:49.492Z,58.50
2019-03-08T13:41:18.251Z,58.20
2019-03-08T13:43:46.457Z,57.80
2019-03-08T13:46:14.698Z,57.40
2019-03-08T13:48:43.082Z,57.50
2019-03-08T13:51:11.381Z,55.90
2019-03-08T13:53:39.617Z,55.10
2019-03-08T13:56:07.883Z,52.40
2019-03-08T13:58:36.097Z,52.40
2019-03-08T14:01:04.394Z,51.50
2019-03-08T14:03:32.648Z,52.30
2019-03-08T14:06:00.926Z,52.40
2019-03-08T14:08:29.176Z,52.10
2019-03-08T14:10:57.416Z,52.60
2019-03-08T14:13:25.625Z,52.80
2019-03-08T14:15:54.473Z,52.30
2019-03-08T14:18:22.837Z,52.60
2019-03-08T14:20:51.060Z,53.10
2019-03-08T14:23:19.366Z,53.40
2019-03-08T14:25:47.595Z,53.10
2019-03-08T14:28:15.872Z,53.30
2019-03-08T14:30:57.346Z,53.40
2019-03-08T14:33:18.537Z,54.10
2019-03-08T14:35:46.755Z,53.60
2019-03-08T14:38:14.982Z,54.00
2019-03-08T14:40:58.775Z,54.30
2019-03-08T14:43:28.969Z,54.60
2019-03-08T14:45:59.038Z,54.60
2019-03-08T14:48:27.253Z,54.70
2019-03-08T14:50:55.487Z,54.40
2019-03-08T14:53:28.399Z,54.20
2019-03-08T14:55:59.049Z,54.00
2019-03-08T14:58:25.510Z,53.60
2019-03-08T15:00:53.744Z,53.30
2019-03-08T15:03:23.741Z,52.00
2019-03-08T15:06:11.862Z,51.10
2019-03-08T15:08:40.367Z,49.70
2019-03-08T15:11:08.595Z,50.60
2019-03-08T15:13:36.853Z,49.60
2019-03-08T15:16:05.146Z,49.50
2019-03-08T15:18:35.632Z,49.90
2019-03-08T15:21:03.892Z,49.40
2019-03-08T15:23:32.124Z,48.80
2019-03-08T15:26:00.421Z,49.50
2019-03-08T15:28:28.917Z,49.80
2019-03-08T15:30:57.720Z,49.60
2019-03-08T15:33:26.121Z,50.50
2019-03-08T15:35:54.386Z,51.40
2019-03-08T15:38:22.863Z,52.00
2019-03-08T15:40:51.116Z,52.60
2019-03-08T15:43:19.322Z,53.00
2019-03-08T15:45:47.560Z,53.80
2019-03-08T15:48:15.974Z,53.50
2019-03-08T15:50:46.669Z,53.80
2019-03-08T15:53:14.423Z,54.10
2019-03-08T15:55:52.288Z,53.90
2019-03-08T15:58:12.900Z,53.40
2019-03-08T16:00:41.545Z,54.00
2019-03-08T16:03:09.751Z,54.20
2019-03-08T16:05:37.991Z,54.80
2019-03-08T16:08:06.238Z,55.20
2019-03-08T16:10:34.542Z,55.40
2019-03-08T16:13:02.937Z,55.90
2019-03-08T16:15:31.210Z,55.90
2019-03-08T16:17:59.432Z,56.10
2019-03-08T16:20:27.656Z,56.60
2019-03-08T16:22:56.254Z,56.50
2019-03-08T16:25:24.511Z,56.80
2019-03-08T16:27:52.819Z,56.70
2019-03-08T16:30:35.613Z,56.90
2019-03-08T16:33:11.525Z,57.20
2019-03-08T16:35:50.283Z,57.40
2019-03-08T16:38:23.080Z,57.70
2019-03-08T16:40:55.733Z,57.30
2019-03-08T16:43:25.615Z,57.50
2019-03-08T16:45:57.955Z,57.60
2019-03-08T16:48:27.817Z,58.10
2019-03-08T16:51:07.174Z,58.20
2019-03-08T16:53:46.143Z,58.00
2019-03-08T16:56:16.021Z,57.80
2019-03-08T16:58:51.861Z,57.70
2019-03-08T17:01:33.596Z,58.20
2019-03-08T17:04:06.501Z,58.20
2019-03-08T17:06:36.613Z,58.50
2019-03-08T17:09:13.278Z,58.80
2019-03-08T17:11:45.570Z,60.90
2019-03-08T17:14:24.105Z,63.70
2019-03-08T17:16:59.967Z,65.20
2019-03-08T17:19:39.087Z,66.40
2019-03-08T17:22:17.733Z,67.50
2019-03-08T17:24:50.256Z,68.10
2019-03-08T17:27:32.154Z,68.60
2019-03-08T17:30:16.878Z,69.20
2019-03-08T17:32:46.788Z,70.10
2019-03-08T17:35:19.567Z,70.90
2019-03-08T17:37:49.601Z,71.30
2019-03-08T17:40:19.483Z,71.70
2019-03-08T17:43:05.674Z,71.90
2019-03-08T17:45:35.712Z,72.10
2019-03-08T17:48:05.675Z,72.50
2019-03-08T17:50:35.577Z,72.60
2019-03-08T17:53:21.489Z,73.70
2019-03-08T17:56:07.908Z,73.10
2019-03-08T17:58:47.953Z,73.20
2019-03-08T18:01:17.934Z,73.20
2019-03-08T18:04:03.836Z,73.70
2019-03-08T18:06:50.156Z,73.60
2019-03-08T18:09:23.250Z,73.70
2019-03-08T18:11:53.358Z,74.10
2019-03-08T18:14:35.539Z,73.80
2019-03-08T18:17:05.395Z,74.10
2019-03-08T18:19:38.043Z,73.80
2019-03-08T18:22:16.750Z,74.10
2019-03-08T18:24:58.688Z,74.20
2019-03-08T18:27:44.805Z,74.40
2019-03-08T18:30:26.616Z,74.40
2019-03-08T18:32:56.757Z,74.50
2019-03-08T18:35:26.919Z,74.60
2019-03-08T18:37:56.820Z,75.10
2019-03-08T18:40:35.688Z,74.90
2019-03-08T18:43:11.561Z,74.90
2019-03-08T18:45:41.484Z,74.60
2019-03-08T18:48:27.368Z,74.50
2019-03-08T18:51:15.569Z,74.40
2019-03-08T18:54:01.467Z,74.50
2019-03-08T18:56:31.349Z,74.90
2019-03-08T18:59:09.928Z,75.50
2019-03-08T19:01:52.020Z,75.30
2019-03-08T19:04:30.036Z,75.70
2019-03-08T19:07:15.053Z,75.90
2019-03-08T19:09:44.896Z,76.00
2019-03-08T19:12:26.468Z,76.30
2019-03-08T19:15:12.676Z,76.40
2019-03-08T19:17:51.521Z,76.50
2019-03-08T19:20:21.394Z,76.70
2019-03-08T19:22:54.261Z,76.80
2019-03-08T19:25:24.148Z,76.80
2019-03-08T19:27:54.024Z,76.80
2019-03-08T19:30:23.905Z,76.80
2019-03-08T19:32:56.505Z,76.90
2019-03-08T19:35:44.525Z,77.00
2019-03-08T19:38:29.510Z,77.00
2019-03-08T19:40:59.998Z,77.20
2019-03-08T19:43:35.617Z,77.30
2019-03-08T19:46:11.254Z,77.70
2019-03-08T19:48:57.472Z,78.10
2019-03-08T19:51:27.390Z,78.40
2019-03-08T19:54:05.969Z,78.60
2019-03-08T19:56:38.788Z,78.80
2019-03-08T19:59:08.833Z,79.10
2019-03-08T20:01:38.768Z,79.30
2019-03-08T20:04:24.867Z,79.30
2019-03-08T20:06:55.206Z,79.30
2019-03-08T20:09:43.430Z,79.40
2019-03-08T20:12:13.307Z,79.30
2019-03-08T20:14:54.670Z,79.40
2019-03-08T20:17:36.320Z,79.30
2019-03-08T20:20:24.286Z,79.10
2019-03-08T20:22:54.515Z,78.80
2019-03-08T20:25:24.387Z,78.20
2019-03-08T20:28:00.073Z,77.70
2019-03-08T20:30:29.925Z,77.50
2019-03-08T20:32:59.896Z,77.30
2019-03-08T20:35:32.747Z,77.30
2019-03-08T20:38:02.632Z,76.60
2019-03-08T20:40:34.936Z,76.60
2019-03-08T20:43:07.879Z,76.00
2019-03-08T20:45:40.775Z,76.00
2019-03-08T20:48:09.115Z,75.80
2019-03-08T20:50:37.353Z,75.70
2019-03-08T20:53:05.835Z,75.50
2019-03-08T20:55:34.307Z,75.60
2019-03-08T20:58:02.614Z,75.70
2019-03-08T21:00:30.912Z,75.90
2019-03-08T21:02:59.190Z,76.20
2019-03-08T21:05:27.441Z,76.30
2019-03-08T21:07:55.645Z,75.90
2019-03-08T21:10:23.889Z,75.90
2019-03-08T21:12:52.114Z,76.00
2019-03-08T21:15:25.311Z,75.80
2019-03-08T21:17:50.401Z,75.30
2019-03-08T21:20:18.710Z,75.10
2019-03-08T21:22:46.963Z,75.30
2019-03-08T21:25:16.110Z,75.40
2019-03-08T21:27:44.398Z,75.10
2019-03-08T21:30:17.524Z,75.10
2019-03-08T21:32:45.770Z,75.30
2019-03-08T21:35:13.999Z,75.40
2019-03-08T21:37:42.627Z,75.20
2019-03-08T21:40:12.159Z,75.00
2019-03-08T21:42:40.454Z,74.80
2019-03-08T21:45:13.738Z,74.60
2019-03-08T21:47:42.031Z,74.50
2019-03-08T21:50:15.744Z,74.30
2019-03-08T21:52:44.054Z,74.00
2019-03-08T21:55:12.322Z,73.90
2019-03-08T21:57:40.555Z,73.90
2019-03-08T22:00:20.153Z,73.90
2019-03-08T22:02:48.358Z,73.80
2019-03-08T22:05:18.217Z,73.60
2019-03-08T22:07:46.446Z,73.60
2019-03-08T22:10:16.564Z,73.60
2019-03-08T22:12:44.792Z,73.30
2019-03-08T22:15:13.209Z,73.10
2019-03-08T22:17:41.448Z,73.00
2019-03-08T22:20:09.661Z,72.70
2019-03-08T22:22:38.131Z,72.60
2019-03-08T22:25:07.677Z,72.30
2019-03-08T22:27:35.932Z,72.40
2019-03-08T22:30:13.164Z,71.80
2019-03-08T22:32:41.434Z,71.80
2019-03-08T22:35:09.728Z,71.80
2019-03-08T22:37:38.269Z,71.80
2019-03-08T22:40:08.097Z,72.00
2019-03-08T22:42:36.404Z,71.70
2019-03-08T22:45:06.268Z,71.60
2019-03-08T22:47:34.505Z,71.60
2019-03-08T22:50:03.147Z,71.60
2019-03-08T22:52:31.377Z,71.80
2019-03-08T22:54:59.581Z,71.80
2019-03-08T22:57:27.816Z,71.90
2019-03-08T22:59:56.058Z,72.00
2019-03-08T23:02:24.270Z,71.90
2019-03-08T23:04:52.548Z,71.60
2019-03-08T23:07:21.029Z,71.30
2019-03-08T23:09:49.286Z,71.00
2019-03-08T23:12:17.507Z,71.00
2019-03-08T23:14:45.737Z,71.00
2019-03-08T23:17:13.957Z,71.20
2019-03-08T23:19:42.250Z,70.80
2019-03-08T23:22:10.468Z,70.90
2019-03-08T23:24:38.705Z,71.10
2019-03-08T23:27:14.606Z,71.20
2019-03-08T23:29:50.542Z,70.80
2019-03-08T23:32:23.249Z,70.80
2019-03-08T23:34:51.713Z,70.70
2019-03-08T23:37:19.931Z,70.70
2019-03-08T23:39:48.170Z,71.00
2019-03-08T23:42:16.400Z,70.90
2019-03-08T23:44:45.168Z,71.10
2019-03-08T23:47:13.394Z,71.10
2019-03-08T23:49:41.720Z,71.20
2019-03-08T23:52:10.024Z,71.10
2019-03-08T23:54:38.252Z,71.00
2019-03-08T23:57:06.722Z,71.10
2019-03-08T23:59:35.195Z,71.20
